createdAt,value
2022-12-09T00:01:06.170Z,5.30
2022-12-09T00:03:34.498Z,5.32
2022-12-09T00:06:24.718Z,5.23
2022-12-09T00:08:53.046Z,5.21
2022-12-09T00:11:21.586Z,5.24
2022-12-09T00:13:54.372Z,5.26
2022-12-09T00:16:22.900Z,5.22
2022-12-09T00:18:51.424Z,5.22
2022-12-09T00:21:22.636Z,5.22
2022-12-09T00:23:52.149Z,5.30
2022-12-09T00:26:21.373Z,5.28
2022-12-09T00:28:50.397Z,5.29
2022-12-09T00:31:24.583Z,5.27
2022-12-09T00:33:55.494Z,5.22
2022-12-09T00:36:24.211Z,5.17
2022-12-09T00:38:53.021Z,5.19
2022-12-09T00:41:21.065Z,5.16
2022-12-09T00:43:48.916Z,5.13
2022-12-09T00:46:16.736Z,5.14
2022-12-09T00:48:46.064Z,5.16
2022-12-09T00:51:16.655Z,5.17
2022-12-09T00:53:44.560Z,5.11
2022-12-09T00:56:12.196Z,5.07
2022-12-09T00:58:39.893Z,5.11
2022-12-09T01:01:07.335Z,5.13
2022-12-09T01:03:35.199Z,5.08
2022-12-09T01:06:11.987Z,5.15
2022-12-09T01:08:40.112Z,5.11
2022-12-09T01:11:21.091Z,5.11
2022-12-09T01:13:50.398Z,5.10
2022-12-09T01:16:24.810Z,5.07
2022-12-09T01:18:54.085Z,5.07
2022-12-09T01:21:21.537Z,5.09
2022-12-09T01:23:50.074Z,5.07
2022-12-09T01:26:17.950Z,5.05
2022-12-09T01:28:45.497Z,5.05
2022-12-09T01:31:15.784Z,5.03
2022-12-09T01:33:44.711Z,5.04
2022-12-09T01:36:16.870Z,5.01
2022-12-09T01:38:45.682Z,5.04
2022-12-09T01:41:14.319Z,5.02
2022-12-09T01:43:42.314Z,5.00
2022-12-09T01:46:09.899Z,4.99
2022-12-09T01:48:41.748Z,5.03
2022-12-09T01:51:19.963Z,5.01
2022-12-09T01:53:50.807Z,4.98
2022-12-09T01:56:29.281Z,5.05
2022-12-09T01:59:00.639Z,5.03
2022-12-09T02:01:29.117Z,5.03
2022-12-09T02:03:57.028Z,5.01
2022-12-09T02:06:24.464Z,5.05
2022-12-09T02:08:52.973Z,5.07
2022-12-09T02:11:29.670Z,5.11
2022-12-09T02:14:03.561Z,5.10
2022-12-09T02:16:40.356Z,5.12
2022-12-09T02:19:15.048Z,5.09
2022-12-09T02:21:53.198Z,5.13
2022-12-09T02:24:30.325Z,5.20
2022-12-09T02:27:05.926Z,5.11
2022-12-09T02:29:45.590Z,5.06
2022-12-09T02:32:37.830Z,5.08
2022-12-09T02:35:14.757Z,5.09
2022-12-09T02:37:53.466Z,5.07
2022-12-09T02:40:44.766Z,5.05
2022-12-09T02:43:14.513Z,5.02
2022-12-09T02:45:44.097Z,5.05
2022-12-09T02:48:15.210Z,5.06
2022-12-09T02:50:45.275Z,5.03
2022-12-09T02:53:14.770Z,5.08
2022-12-09T02:55:45.511Z,5.03
2022-12-09T02:58:12.954Z,5.07
2022-12-09T03:00:41.251Z,5.04
2022-12-09T03:03:15.196Z,5.03
2022-12-09T03:05:56.399Z,4.97
2022-12-09T03:08:26.877Z,5.00
2022-12-09T03:11:08.335Z,4.96
2022-12-09T03:13:52.007Z,4.93
2022-12-09T03:16:34.087Z,4.88
2022-12-09T03:19:09.317Z,4.90
2022-12-09T03:21:44.069Z,4.93
2022-12-09T03:24:15.379Z,4.91
2022-12-09T03:26:43.838Z,4.91
2022-12-09T03:29:17.646Z,4.92
2022-12-09T03:31:47.252Z,4.92
2022-12-09T03:34:20.144Z,4.96
2022-12-09T03:36:53.842Z,4.96
2022-12-09T03:39:27.346Z,4.93
2022-12-09T03:42:02.935Z,4.90
2022-12-09T03:44:43.157Z,4.97
2022-12-09T03:47:11.458Z,4.99
2022-12-09T03:49:39.852Z,5.01
2022-12-09T03:52:30.681Z,5.05
2022-12-09T03:55:03.178Z,5.02
2022-12-09T03:57:32.442Z,5.06
2022-12-09T04:00:01.985Z,5.06
2022-12-09T04:02:40.512Z,5.05
2022-12-09T04:05:08.623Z,5.10
2022-12-09T04:07:36.124Z,5.12
2022-12-09T04:10:04.993Z,5.04
2022-12-09T04:12:32.738Z,5.07
2022-12-09T04:15:00.118Z,5.10
2022-12-09T04:17:27.990Z,5.08
2022-12-09T04:19:55.657Z,5.03
2022-12-09T04:22:23.113Z,5.01
2022-12-09T04:24:50.450Z,5.08
2022-12-09T04:27:18.335Z,5.01
2022-12-09T04:29:45.790Z,5.07
2022-12-09T04:32:13.500Z,4.98
2022-12-09T04:34:40.862Z,4.92
2022-12-09T04:37:08.278Z,4.83
2022-12-09T04:39:36.040Z,4.87
2022-12-09T04:42:03.968Z,4.92
2022-12-09T04:44:31.595Z,4.78
2022-12-09T04:46:59.271Z,4.79
2022-12-09T04:49:28.920Z,4.87
2022-12-09T04:51:56.387Z,4.90
2022-12-09T04:54:24.168Z,4.87
2022-12-09T04:56:52.001Z,4.94
2022-12-09T04:59:19.690Z,4.93
2022-12-09T05:01:47.334Z,4.96
2022-12-09T05:04:15.494Z,4.94
2022-12-09T05:06:43.415Z,4.94
2022-12-09T05:09:16.126Z,4.97
2022-12-09T05:11:43.785Z,4.95
2022-12-09T05:14:11.365Z,4.99
2022-12-09T05:16:39.294Z,4.94
2022-12-09T05:19:07.113Z,4.92
2022-12-09T05:21:34.690Z,4.93
2022-12-09T05:24:03.736Z,4.99
2022-12-09T05:26:32.286Z,4.99
2022-12-09T05:29:00.115Z,5.00
2022-12-09T05:31:27.616Z,5.04
2022-12-09T05:33:55.533Z,5.02
2022-12-09T05:36:25.305Z,5.02
2022-12-09T05:38:53.568Z,5.06
2022-12-09T05:41:22.945Z,5.07
2022-12-09T05:44:09.505Z,5.00
2022-12-09T05:46:37.427Z,5.01
2022-12-09T05:49:06.442Z,5.02
2022-12-09T05:51:34.046Z,5.06
2022-12-09T05:54:03.485Z,5.04
2022-12-09T05:56:31.213Z,5.05
2022-12-09T05:58:59.526Z,5.08
2022-12-09T06:01:27.930Z,5.14
2022-12-09T06:03:55.917Z,5.10
2022-12-09T06:06:31.408Z,5.11
2022-12-09T06:09:02.233Z,5.12
2022-12-09T06:11:32.402Z,5.08
2022-12-09T06:14:00.229Z,5.07
2022-12-09T06:16:28.151Z,5.07
2022-12-09T06:18:56.201Z,5.04
2022-12-09T06:21:24.396Z,5.08
2022-12-09T06:23:52.881Z,5.02
2022-12-09T06:26:26.414Z,5.08
2022-12-09T06:28:55.521Z,5.05
2022-12-09T06:31:24.909Z,5.09
2022-12-09T06:33:55.577Z,5.11
2022-12-09T06:36:24.985Z,5.11
2022-12-09T06:38:52.682Z,5.15
2022-12-09T06:41:20.642Z,5.14
2022-12-09T06:43:48.815Z,5.10
2022-12-09T06:46:24.645Z,5.08
2022-12-09T06:48:54.060Z,5.09
2022-12-09T06:51:23.648Z,5.05
2022-12-09T06:53:51.363Z,5.06
2022-12-09T06:56:19.100Z,5.02
2022-12-09T06:58:47.501Z,5.01
2022-12-09T07:01:21.276Z,4.95
2022-12-09T07:03:52.257Z,4.97
2022-12-09T07:06:30.980Z,5.04
2022-12-09T07:09:10.586Z,5.07
2022-12-09T07:11:39.159Z,5.05
2022-12-09T07:14:06.774Z,5.08
2022-12-09T07:16:35.204Z,5.16
2022-12-09T07:19:03.723Z,5.17
2022-12-09T07:21:32.633Z,5.13
2022-12-09T07:24:01.586Z,5.08
2022-12-09T07:26:33.771Z,5.17
2022-12-09T07:29:04.563Z,5.16
2022-12-09T07:31:33.485Z,5.19
2022-12-09T07:34:02.073Z,5.25
2022-12-09T07:36:31.578Z,5.19
2022-12-09T07:39:05.609Z,5.23
2022-12-09T07:41:33.851Z,5.15
2022-12-09T07:44:01.405Z,5.25
2022-12-09T07:46:29.300Z,5.17
2022-12-09T07:48:58.268Z,5.19
2022-12-09T07:51:26.214Z,5.29
2022-12-09T07:53:54.329Z,5.19
2022-12-09T07:56:23.535Z,5.23
2022-12-09T07:58:54.084Z,5.16
2022-12-09T08:01:24.697Z,5.14
2022-12-09T08:03:53.315Z,5.10
2022-12-09T08:06:24.802Z,5.06
2022-12-09T08:08:52.992Z,5.17
2022-12-09T08:11:24.455Z,5.22
2022-12-09T08:13:53.151Z,5.21
2022-12-09T08:16:22.885Z,5.22
2022-12-09T08:18:52.035Z,5.36
2022-12-09T08:21:28.511Z,5.26
2022-12-09T08:23:58.243Z,5.24
2022-12-09T08:26:28.064Z,5.18
2022-12-09T08:28:56.355Z,5.12
2022-12-09T08:31:25.662Z,5.10
2022-12-09T08:33:53.975Z,5.12
2022-12-09T08:36:24.756Z,5.09
2022-12-09T08:38:54.570Z,5.14
2022-12-09T08:41:35.385Z,5.21
2022-12-09T08:44:07.922Z,5.18
2022-12-09T08:46:38.066Z,5.19
2022-12-09T08:49:07.314Z,5.20
2022-12-09T08:51:35.889Z,5.27
2022-12-09T08:54:04.972Z,5.14
2022-12-09T08:56:35.440Z,5.26
2022-12-09T08:59:03.928Z,5.24
2022-12-09T09:01:35.926Z,5.35
2022-12-09T09:04:09.226Z,5.39
2022-12-09T09:06:38.432Z,5.30
2022-12-09T09:09:07.937Z,5.27
2022-12-09T09:11:39.443Z,5.12
2022-12-09T09:14:11.717Z,5.29
2022-12-09T09:16:42.150Z,5.45
2022-12-09T09:19:16.011Z,5.42
2022-12-09T09:21:43.803Z,5.27
2022-12-09T09:24:14.436Z,5.28
2022-12-09T09:26:44.258Z,5.36
2022-12-09T09:29:13.484Z,5.44
2022-12-09T09:31:41.912Z,5.45
2022-12-09T09:34:10.388Z,5.41
2022-12-09T09:36:40.352Z,5.55
2022-12-09T09:39:08.426Z,5.32
2022-12-09T09:41:51.760Z,5.44
2022-12-09T09:44:22.613Z,5.53
2022-12-09T09:46:54.743Z,5.72
2022-12-09T09:49:46.156Z,5.69
2022-12-09T09:52:19.045Z,5.61
2022-12-09T09:54:47.392Z,5.58
2022-12-09T09:57:22.131Z,5.71
2022-12-09T10:00:08.846Z,5.72
2022-12-09T10:02:46.145Z,5.64
2022-12-09T10:05:33.011Z,5.66
2022-12-09T10:08:33.579Z,5.55
2022-12-09T10:11:23.432Z,5.49
2022-12-09T10:13:52.590Z,5.56
2022-12-09T10:16:25.038Z,5.56
2022-12-09T10:19:09.674Z,5.46
2022-12-09T10:21:42.505Z,5.46
2022-12-09T10:24:24.069Z,5.60
2022-12-09T10:27:06.187Z,5.49
2022-12-09T10:29:43.400Z,5.51
2022-12-09T10:32:18.152Z,5.60
2022-12-09T10:34:47.727Z,5.68
2022-12-09T10:37:28.486Z,5.61
2022-12-09T10:40:20.249Z,5.61
2022-12-09T10:43:09.599Z,5.58
2022-12-09T10:46:16.931Z,5.66
2022-12-09T10:48:37.633Z,5.54
2022-12-09T10:51:12.275Z,5.51
2022-12-09T10:53:56.305Z,5.63
2022-12-09T10:57:05.140Z,5.78
2022-12-09T10:59:34.068Z,5.78
2022-12-09T11:02:09.795Z,5.79
2022-12-09T11:04:43.440Z,5.74
2022-12-09T11:07:21.164Z,5.64
2022-12-09T11:09:51.263Z,5.59
2022-12-09T11:12:30.955Z,5.58
2022-12-09T11:15:11.867Z,5.43
2022-12-09T11:17:58.449Z,5.43
2022-12-09T11:20:29.657Z,5.39
2022-12-09T11:23:15.991Z,5.37
2022-12-09T11:26:00.187Z,5.43
2022-12-09T11:28:39.471Z,5.41
2022-12-09T11:34:17.973Z,5.52
2022-12-09T11:36:51.949Z,5.53
2022-12-09T11:39:27.616Z,5.55
2022-12-09T11:42:18.599Z,5.45
2022-12-09T11:45:16.754Z,5.61
2022-12-09T11:50:37.152Z,5.64
2022-12-09T11:53:13.161Z,5.63
2022-12-09T11:55:51.257Z,5.59
2022-12-09T11:58:30.441Z,5.56
2022-12-09T12:01:14.260Z,5.63
2022-12-09T12:03:49.147Z,5.82
2022-12-09T12:06:24.299Z,5.69
2022-12-09T12:08:58.769Z,5.65
2022-12-09T12:11:40.599Z,5.57
2022-12-09T12:14:18.975Z,5.61
2022-12-09T12:16:57.332Z,5.63
2022-12-09T12:19:35.078Z,5.74
2022-12-09T12:22:31.520Z,5.78
2022-12-09T12:25:21.842Z,5.87
2022-12-09T12:28:04.325Z,5.93
2022-12-09T12:30:57.846Z,5.92
2022-12-09T12:34:16.131Z,5.91
2022-12-09T12:37:17.282Z,5.70
2022-12-09T12:40:07.220Z,5.70
2022-12-09T12:43:22.776Z,5.62
2022-12-09T12:46:17.848Z,5.60
2022-12-09T12:49:24.341Z,5.67
2022-12-09T12:52:39.417Z,5.77
2022-12-09T12:55:26.051Z,5.82
2022-12-09T12:58:14.320Z,5.78
2022-12-09T13:01:07.468Z,5.82
2022-12-09T13:04:06.630Z,5.88
2022-12-09T13:06:40.849Z,5.96
2022-12-09T13:09:18.919Z,6.04
2022-12-09T13:11:58.842Z,5.89
2022-12-09T13:14:33.857Z,6.01
2022-12-09T13:17:05.546Z,6.02
2022-12-09T13:19:44.605Z,5.92
2022-12-09T13:22:36.609Z,5.80
2022-12-09T13:25:39.798Z,5.76
2022-12-09T13:28:24.900Z,5.80
2022-12-09T13:30:59.558Z,5.92
2022-12-09T13:33:55.171Z,6.04
2022-12-09T13:36:46.462Z,6.03
2022-12-09T13:39:39.522Z,5.99
2022-12-09T13:42:55.350Z,5.85
2022-12-09T13:45:34.644Z,5.77
2022-12-09T13:48:09.601Z,5.84
2022-12-09T13:50:57.711Z,5.70
2022-12-09T13:53:33.763Z,5.78
2022-12-09T13:56:04.239Z,5.68
2022-12-09T13:58:55.985Z,5.74
2022-12-09T14:01:28.132Z,5.72
2022-12-09T14:04:15.586Z,5.82
2022-12-09T14:06:45.618Z,5.78
2022-12-09T14:09:49.057Z,5.80
2022-12-09T14:12:25.613Z,5.84
2022-12-09T14:14:58.636Z,5.86
2022-12-09T14:17:25.937Z,5.92
2022-12-09T14:20:14.907Z,5.86
2022-12-09T14:23:02.029Z,5.86
2022-12-09T14:25:29.323Z,5.80
2022-12-09T14:28:21.003Z,5.71
2022-12-09T14:30:51.127Z,5.76
2022-12-09T14:33:31.822Z,5.84
2022-12-09T14:36:21.853Z,5.74
2022-12-09T14:39:24.368Z,5.79
2022-12-09T14:42:02.092Z,5.79
2022-12-09T14:44:39.981Z,5.81
2022-12-09T14:47:24.251Z,5.79
2022-12-09T14:49:54.024Z,5.82
2022-12-09T14:52:33.062Z,5.75
2022-12-09T14:55:04.726Z,5.71
2022-12-09T14:57:44.036Z,5.70
2022-12-09T15:00:32.211Z,5.70
2022-12-09T15:06:17.733Z,5.71
2022-12-09T15:08:45.796Z,5.70
2022-12-09T15:11:27.299Z,5.77
2022-12-09T15:14:20.551Z,5.79
2022-12-09T15:16:50.895Z,5.80
2022-12-09T15:19:58.627Z,5.81
2022-12-09T15:22:24.046Z,5.86
2022-12-09T15:24:52.704Z,5.88
2022-12-09T15:27:22.657Z,5.87
2022-12-09T15:29:50.603Z,5.79
2022-12-09T15:32:28.195Z,5.86
2022-12-09T15:34:56.015Z,5.90
2022-12-09T15:37:28.741Z,5.86
2022-12-09T15:40:08.494Z,5.81
2022-12-09T15:42:40.290Z,5.88
2022-12-09T15:45:12.932Z,5.94
2022-12-09T15:47:51.433Z,5.96
2022-12-09T15:50:22.944Z,5.81
2022-12-09T15:52:54.510Z,5.74
2022-12-09T15:55:30.845Z,5.61
2022-12-09T15:58:00.712Z,5.56
2022-12-09T16:00:28.541Z,5.62
2022-12-09T16:02:56.408Z,5.64
2022-12-09T16:05:25.721Z,5.65
2022-12-09T16:07:56.390Z,5.62
2022-12-09T16:10:27.044Z,5.65
2022-12-09T16:13:12.920Z,5.70
2022-12-09T16:15:45.037Z,5.75
2022-12-09T16:18:27.156Z,5.75
2022-12-09T16:20:59.858Z,5.85
2022-12-09T16:23:27.802Z,5.77
2022-12-09T16:26:06.691Z,5.70
2022-12-09T16:28:35.091Z,5.78
2022-12-09T16:31:25.509Z,5.84
2022-12-09T16:33:53.032Z,5.76
2022-12-09T16:36:29.062Z,5.82
2022-12-09T16:39:08.635Z,5.79
2022-12-09T16:41:51.125Z,5.72
2022-12-09T16:44:40.553Z,5.72
2022-12-09T16:47:11.428Z,5.83
2022-12-09T16:49:40.550Z,5.93
2022-12-09T16:52:12.618Z,5.97
2022-12-09T16:54:42.494Z,5.99
2022-12-09T16:57:13.145Z,6.00
2022-12-09T16:59:41.010Z,6.03
2022-12-09T17:02:34.313Z,6.07
2022-12-09T17:05:01.988Z,6.07
2022-12-09T17:07:29.398Z,6.06
2022-12-09T17:09:56.729Z,6.03
2022-12-09T17:12:24.175Z,5.85
2022-12-09T17:14:52.483Z,5.90
2022-12-09T17:17:19.854Z,5.87
2022-12-09T17:19:47.213Z,5.82
2022-12-09T17:22:14.577Z,5.71
2022-12-09T17:24:42.024Z,5.78
2022-12-09T17:27:09.491Z,5.67
2022-12-09T17:29:37.430Z,5.61
2022-12-09T17:32:05.793Z,5.63
2022-12-09T17:34:33.138Z,5.67
2022-12-09T17:37:00.607Z,5.77
2022-12-09T17:39:29.892Z,5.73
2022-12-09T17:41:57.278Z,5.69
2022-12-09T17:44:24.665Z,5.58
2022-12-09T17:46:52.242Z,5.56
2022-12-09T17:49:20.006Z,5.47
2022-12-09T17:51:50.187Z,5.42
2022-12-09T17:54:17.561Z,5.49
2022-12-09T17:56:46.658Z,5.55
2022-12-09T17:59:16.028Z,5.53
2022-12-09T18:01:45.779Z,5.48
2022-12-09T18:04:17.512Z,5.63
2022-12-09T18:06:46.274Z,5.58
2022-12-09T18:09:16.715Z,5.51
2022-12-09T18:11:45.180Z,5.52
2022-12-09T18:14:12.985Z,5.52
2022-12-09T18:16:40.465Z,5.45
2022-12-09T18:19:15.264Z,5.53
2022-12-09T18:21:43.985Z,5.39
2022-12-09T18:24:11.403Z,5.50
2022-12-09T18:26:42.132Z,5.55
2022-12-09T18:29:10.924Z,5.59
2022-12-09T18:31:39.413Z,5.60
2022-12-09T18:34:07.113Z,5.68
2022-12-09T18:36:34.428Z,5.64
2022-12-09T18:39:01.873Z,5.59
2022-12-09T18:41:30.897Z,5.59
2022-12-09T18:44:01.184Z,5.60
2022-12-09T18:46:36.599Z,5.66
2022-12-09T18:49:13.043Z,5.72
2022-12-09T18:51:42.373Z,5.67
2022-12-09T18:54:16.384Z,5.68
2022-12-09T18:56:44.133Z,5.66
2022-12-09T18:59:12.151Z,5.68
2022-12-09T19:01:45.227Z,5.67
2022-12-09T19:04:18.994Z,5.65
2022-12-09T19:06:48.348Z,5.66
2022-12-09T19:09:19.717Z,5.75
2022-12-09T19:11:48.432Z,5.68
2022-12-09T19:14:17.322Z,5.75
2022-12-09T19:16:45.393Z,5.80
2022-12-09T19:19:15.593Z,5.79
2022-12-09T19:21:43.545Z,5.85
2022-12-09T19:24:16.942Z,5.75
2022-12-09T19:26:45.033Z,5.87
2022-12-09T19:29:13.612Z,5.81
2022-12-09T19:31:45.978Z,5.73
2022-12-09T19:34:20.164Z,5.74
2022-12-09T19:36:49.693Z,5.71
2022-12-09T19:39:19.426Z,5.68
2022-12-09T19:41:47.047Z,5.67
2022-12-09T19:44:37.150Z,5.75
2022-12-09T19:47:07.600Z,5.76
2022-12-09T19:49:36.313Z,5.68
2022-12-09T19:52:03.778Z,5.77
2022-12-09T19:54:31.147Z,5.87
2022-12-09T19:57:00.816Z,5.75
2022-12-09T19:59:28.458Z,5.74
2022-12-09T20:01:56.056Z,5.82
2022-12-09T20:07:14.852Z,5.72
2022-12-09T20:09:42.268Z,5.69
2022-12-09T20:12:09.673Z,5.70
2022-12-09T20:14:37.051Z,5.76
2022-12-09T20:17:04.560Z,5.72
2022-12-09T20:19:31.980Z,5.70
2022-12-09T20:21:59.317Z,5.72
2022-12-09T20:24:26.863Z,5.71
2022-12-09T20:26:56.023Z,5.72
2022-12-09T20:29:23.433Z,5.69
2022-12-09T20:31:53.272Z,5.79
2022-12-09T20:34:23.735Z,5.93
2022-12-09T20:36:51.432Z,5.85
2022-12-09T20:39:21.162Z,5.93
2022-12-09T20:41:48.834Z,5.89
2022-12-09T20:44:18.347Z,5.81
2022-12-09T20:46:49.426Z,5.85
2022-12-09T20:49:17.383Z,5.81
2022-12-09T20:51:45.433Z,5.92
2022-12-09T20:54:13.991Z,5.87
2022-12-09T20:56:42.099Z,5.95
2022-12-09T20:59:16.062Z,5.95
2022-12-09T21:01:47.260Z,5.86
2022-12-09T21:04:15.198Z,5.85
2022-12-09T21:06:42.988Z,5.70
2022-12-09T21:09:14.856Z,5.75
2022-12-09T21:11:45.836Z,5.77
2022-12-09T21:14:14.501Z,5.77
2022-12-09T21:16:52.298Z,5.84
2022-12-09T21:19:24.718Z,5.70
2022-12-09T21:21:52.790Z,5.68
2022-12-09T21:24:21.839Z,5.74
2022-12-09T21:26:49.536Z,5.72
2022-12-09T21:29:16.945Z,5.65
2022-12-09T21:31:46.936Z,5.69
2022-12-09T21:34:14.849Z,5.72
2022-12-09T21:36:43.997Z,5.76
2022-12-09T21:39:15.833Z,5.75
2022-12-09T21:41:43.159Z,5.72
2022-12-09T21:44:18.647Z,5.68
2022-12-09T21:46:46.209Z,5.66
2022-12-09T21:49:14.741Z,5.71
2022-12-09T21:51:43.486Z,5.84
2022-12-09T21:54:10.915Z,6.07
2022-12-09T21:56:38.331Z,5.97
2022-12-09T21:59:06.953Z,5.96
2022-12-09T22:01:37.864Z,5.92
2022-12-09T22:04:08.544Z,5.84
2022-12-09T22:06:36.382Z,5.95
2022-12-09T22:09:05.908Z,5.98
2022-12-09T22:11:36.531Z,6.00
2022-12-09T22:14:04.256Z,5.93
2022-12-09T22:16:35.096Z,5.95
2022-12-09T22:19:03.973Z,5.95
2022-12-09T22:21:33.571Z,5.96
2022-12-09T22:24:06.687Z,6.04
2022-12-09T22:26:34.145Z,5.96
2022-12-09T22:29:03.283Z,5.92
2022-12-09T22:31:33.349Z,5.89
2022-12-09T22:34:13.412Z,5.97
2022-12-09T22:36:41.456Z,5.96
2022-12-09T22:39:16.188Z,5.96
2022-12-09T22:41:45.793Z,5.96
2022-12-09T22:44:15.424Z,6.02
2022-12-09T22:46:43.851Z,6.05
2022-12-09T22:49:13.573Z,6.00
2022-12-09T22:51:42.171Z,5.96
2022-12-09T22:54:10.781Z,5.91
2022-12-09T22:56:40.162Z,5.89
2022-12-09T22:59:07.949Z,5.86
2022-12-09T23:01:37.438Z,5.87
2022-12-09T23:04:06.836Z,5.85
2022-12-09T23:06:36.672Z,5.81
2022-12-09T23:09:05.379Z,5.76
2022-12-09T23:11:32.975Z,5.81
2022-12-09T23:14:01.058Z,5.78
2022-12-09T23:16:29.210Z,5.72
2022-12-09T23:18:57.849Z,5.74
2022-12-09T23:21:28.638Z,5.76
2022-12-09T23:23:58.730Z,5.79
2022-12-09T23:26:29.141Z,5.78
2022-12-09T23:28:59.691Z,5.78
2022-12-09T23:31:32.104Z,5.70
2022-12-09T23:34:00.153Z,5.76
2022-12-09T23:36:34.627Z,5.80
2022-12-09T23:39:04.170Z,5.72
2022-12-09T23:41:31.570Z,5.70
2022-12-09T23:43:58.943Z,5.72
2022-12-09T23:46:28.027Z,5.64
2022-12-09T23:48:56.572Z,5.69
2022-12-09T23:51:29.897Z,5.70
2022-12-09T23:54:01.170Z,5.71
2022-12-09T23:56:31.722Z,5.78
2022-12-09T23:59:01.867Z,5.69
